createdAt,value
2018-12-23T00:00:12.178Z,6.40
2018-12-23T00:02:44.649Z,6.40
2018-12-23T00:05:20.696Z,6.40
2018-12-23T00:07:56.716Z,6.40
2018-12-23T00:10:35.935Z,6.40
2018-12-23T00:13:08.730Z,6.40
2018-12-23T00:15:44.387Z,6.40
2018-12-23T00:18:20.467Z,6.40
2018-12-23T00:20:52.802Z,6.40
2018-12-23T00:23:28.921Z,6.40
2018-12-23T00:26:05.084Z,6.40
2018-12-23T00:28:41.203Z,6.40
2018-12-23T00:31:17.261Z,6.50
2018-12-23T00:33:53.490Z,6.50
2018-12-23T00:36:29.624Z,6.50
2018-12-23T00:39:07.549Z,6.50
2018-12-23T00:41:40.061Z,6.50
2018-12-23T00:44:12.233Z,6.40
2018-12-23T00:46:48.469Z,6.50
2018-12-23T00:49:24.337Z,6.50
2018-12-23T00:51:56.657Z,6.40
2018-12-23T00:54:32.671Z,6.40
2018-12-23T00:57:08.745Z,6.40
2018-12-23T00:59:44.945Z,6.30
2018-12-23T01:02:20.956Z,6.30
2018-12-23T01:04:56.988Z,6.30
2018-12-23T01:07:33.160Z,6.30
2018-12-23T01:10:06.004Z,6.40
2018-12-23T01:12:41.891Z,6.30
2018-12-23T01:15:17.880Z,6.40
2018-12-23T01:17:54.217Z,6.30
2018-12-23T01:20:30.122Z,6.30
2018-12-23T01:23:06.264Z,6.30
2018-12-23T01:25:42.238Z,6.30
2018-12-23T01:28:18.454Z,6.30
2018-12-23T01:30:54.424Z,6.30
2018-12-23T01:33:26.768Z,6.30
2018-12-23T01:36:02.768Z,6.20
2018-12-23T01:38:35.184Z,6.20
2018-12-23T01:41:10.967Z,6.30
2018-12-23T01:43:46.587Z,6.20
2018-12-23T01:46:22.789Z,6.20
2018-12-23T01:48:58.706Z,6.20
2018-12-23T01:51:35.047Z,6.30
2018-12-23T01:54:11.021Z,6.30
2018-12-23T01:56:46.948Z,6.30
2018-12-23T01:59:23.249Z,6.30
2018-12-23T02:01:59.401Z,6.30
2018-12-23T02:04:35.512Z,6.30
2018-12-23T02:07:11.750Z,6.30
2018-12-23T02:09:47.864Z,6.40
2018-12-23T02:12:24.030Z,6.40
2018-12-23T02:15:13.385Z,6.40
2018-12-23T02:17:48.981Z,6.30
2018-12-23T02:20:21.369Z,6.30
2018-12-23T02:22:57.348Z,6.20
2018-12-23T02:25:33.460Z,6.20
2018-12-23T02:28:09.876Z,6.20
2018-12-23T02:30:47.045Z,6.20
2018-12-23T02:33:22.968Z,6.20
2018-12-23T02:35:59.177Z,6.20
2018-12-23T02:38:35.173Z,6.30
2018-12-23T02:41:11.577Z,6.30
2018-12-23T02:43:47.379Z,6.20
2018-12-23T02:46:23.481Z,6.20
2018-12-23T02:48:55.946Z,6.20
2018-12-23T02:51:31.828Z,6.30
2018-12-23T02:54:08.121Z,6.30
2018-12-23T02:56:44.024Z,6.30
2018-12-23T02:59:20.224Z,6.30
2018-12-23T03:01:56.360Z,6.30
2018-12-23T03:04:32.620Z,6.30
2018-12-23T03:07:08.761Z,6.30
2018-12-23T03:09:41.085Z,6.30
2018-12-23T03:12:17.226Z,6.30
2018-12-23T03:14:53.413Z,6.30
2018-12-23T03:17:29.712Z,6.30
2018-12-23T03:20:06.186Z,6.20
2018-12-23T03:22:42.740Z,6.20
2018-12-23T03:25:18.738Z,6.20
2018-12-23T03:27:54.905Z,6.30
2018-12-23T03:30:30.683Z,6.30
2018-12-23T03:33:07.871Z,6.30
2018-12-23T03:35:44.073Z,6.20
2018-12-23T03:38:20.002Z,6.20
2018-12-23T03:40:56.397Z,6.10
2018-12-23T03:43:32.661Z,6.10
2018-12-23T03:46:08.787Z,6.10
2018-12-23T03:48:44.767Z,6.10
2018-12-23T03:51:21.104Z,6.00
2018-12-23T03:53:57.091Z,6.00
2018-12-23T03:56:33.283Z,6.00
2018-12-23T03:59:09.282Z,6.00
2018-12-23T04:01:45.671Z,6.10
2018-12-23T04:04:21.932Z,6.10
2018-12-23T04:06:58.318Z,6.10
2018-12-23T04:09:34.421Z,6.10
2018-12-23T04:12:10.478Z,6.10
2018-12-23T04:14:46.777Z,6.10
2018-12-23T04:17:23.464Z,6.10
2018-12-23T04:19:55.938Z,6.00
2018-12-23T04:22:31.937Z,6.00
2018-12-23T04:25:08.121Z,5.90
2018-12-23T04:27:44.229Z,5.90
2018-12-23T04:30:16.596Z,5.90
2018-12-23T04:32:52.895Z,5.90
2018-12-23T04:35:29.955Z,5.90
2018-12-23T04:38:02.216Z,5.80
2018-12-23T04:40:38.539Z,5.80
2018-12-23T04:43:14.460Z,5.80
2018-12-23T04:45:50.569Z,5.80
2018-12-23T04:48:26.443Z,5.80
2018-12-23T04:51:02.558Z,5.80
2018-12-23T04:53:34.792Z,5.80
2018-12-23T04:56:07.317Z,5.80
2018-12-23T04:58:43.213Z,5.70
2018-12-23T05:01:15.434Z,5.70
2018-12-23T05:03:51.595Z,5.70
2018-12-23T05:06:27.609Z,5.70
2018-12-23T05:09:05.193Z,5.60
2018-12-23T05:11:40.952Z,5.70
2018-12-23T05:14:20.282Z,5.70
2018-12-23T05:16:56.404Z,5.70
2018-12-23T05:19:35.873Z,5.70
2018-12-23T05:22:16.279Z,5.70
2018-12-23T05:24:52.913Z,5.70
2018-12-23T05:27:25.210Z,5.70
2018-12-23T05:30:01.524Z,5.70
2018-12-23T05:32:37.632Z,5.70
2018-12-23T05:35:13.914Z,5.60
2018-12-23T05:37:49.989Z,5.60
2018-12-23T05:40:22.240Z,5.70
2018-12-23T05:42:54.725Z,5.70
2018-12-23T05:45:30.745Z,5.70
2018-12-23T05:48:06.669Z,5.60
2018-12-23T05:50:42.531Z,5.60
2018-12-23T05:53:18.769Z,5.60
2018-12-23T05:55:50.929Z,5.60
2018-12-23T05:58:23.195Z,5.60
2018-12-23T06:00:55.693Z,5.50
2018-12-23T06:03:31.713Z,5.60
2018-12-23T06:06:07.788Z,5.50
2018-12-23T06:08:43.904Z,5.50
2018-12-23T06:11:19.957Z,5.50
2018-12-23T06:13:56.087Z,5.50
2018-12-23T06:16:32.175Z,5.50
2018-12-23T06:19:04.489Z,5.50
2018-12-23T06:21:40.703Z,5.50
2018-12-23T06:24:16.950Z,5.50
2018-12-23T06:26:54.182Z,5.50
2018-12-23T06:29:30.393Z,5.70
2018-12-23T06:32:06.676Z,5.70
2018-12-23T06:34:39.013Z,5.70
2018-12-23T06:37:15.126Z,5.70
2018-12-23T06:39:51.349Z,5.70
2018-12-23T06:42:27.717Z,5.70
2018-12-23T06:45:04.093Z,5.70
2018-12-23T06:47:39.883Z,5.80
2018-12-23T06:50:15.915Z,5.80
2018-12-23T06:52:48.177Z,5.90
2018-12-23T06:55:24.398Z,5.90
2018-12-23T06:58:00.629Z,5.90
2018-12-23T07:00:36.582Z,5.90
2018-12-23T07:03:09.050Z,5.90
2018-12-23T07:05:45.212Z,5.90
2018-12-23T07:08:21.263Z,5.90
2018-12-23T07:10:57.572Z,5.90
2018-12-23T07:13:33.436Z,5.80
2018-12-23T07:16:09.673Z,5.80
2018-12-23T07:18:45.432Z,5.80
2018-12-23T07:21:21.625Z,5.90
2018-12-23T07:23:54.011Z,5.90
2018-12-23T07:26:30.245Z,5.90
2018-12-23T07:29:06.210Z,5.90
2018-12-23T07:31:38.805Z,6.00
2018-12-23T07:34:41.803Z,5.90
2018-12-23T07:37:14.198Z,6.00
2018-12-23T07:39:50.265Z,6.00
2018-12-23T07:42:22.765Z,6.10
2018-12-23T07:44:58.649Z,6.10
2018-12-23T07:47:34.886Z,6.10
2018-12-23T07:50:11.046Z,6.10
2018-12-23T07:52:47.445Z,6.20
2018-12-23T07:55:23.325Z,6.20
2018-12-23T07:57:55.707Z,6.20
2018-12-23T08:00:31.787Z,6.20
2018-12-23T08:03:07.958Z,6.20
2018-12-23T08:05:43.893Z,6.30
2018-12-23T08:08:20.021Z,6.30
2018-12-23T08:10:56.120Z,6.30
2018-12-23T08:13:31.924Z,6.40
2018-12-23T08:16:11.177Z,6.40
2018-12-23T08:18:47.400Z,6.40
2018-12-23T08:21:23.495Z,6.40
2018-12-23T08:23:59.712Z,6.50
2018-12-23T08:26:36.134Z,6.60
2018-12-23T08:29:12.229Z,6.60
2018-12-23T08:31:48.808Z,6.70
2018-12-23T08:34:24.527Z,6.70
2018-12-23T08:37:00.662Z,6.70
2018-12-23T08:39:36.905Z,6.70
2018-12-23T08:42:13.338Z,6.70
2018-12-23T08:44:49.336Z,6.70
2018-12-23T08:47:25.530Z,6.70
2018-12-23T08:50:04.641Z,6.60
2018-12-23T08:52:40.356Z,6.60
2018-12-23T08:55:16.564Z,6.60
2018-12-23T08:57:52.538Z,6.70
2018-12-23T09:00:28.689Z,6.70
2018-12-23T09:03:06.139Z,6.80
2018-12-23T09:05:41.993Z,6.90
2018-12-23T09:08:14.390Z,7.00
2018-12-23T09:10:50.476Z,6.90
2018-12-23T09:13:22.848Z,7.00
2018-12-23T09:15:55.236Z,7.00
2018-12-23T09:18:27.642Z,7.00
2018-12-23T09:24:34.208Z,7.10
2018-12-23T09:27:10.280Z,7.20
2018-12-23T09:29:46.531Z,7.10
2018-12-23T09:32:22.468Z,7.20
2018-12-23T09:34:58.403Z,7.30
2018-12-23T09:37:30.596Z,7.30
2018-12-23T09:40:06.957Z,7.30
2018-12-23T09:42:42.948Z,7.40
2018-12-23T09:45:19.255Z,7.40
2018-12-23T09:47:55.089Z,7.30
2018-12-23T10:13:28.642Z,7.40
2018-12-23T10:16:04.602Z,7.50
2018-12-23T10:41:36.107Z,7.60
2018-12-23T10:44:12.184Z,7.70
2018-12-23T10:46:48.210Z,7.60
2018-12-23T10:49:24.388Z,7.60
2018-12-23T10:52:00.633Z,7.70
2018-12-23T10:54:36.741Z,7.70
2018-12-23T10:57:12.848Z,7.70
2018-12-23T10:59:45.117Z,7.80
2018-12-23T11:02:21.310Z,7.80
2018-12-23T11:04:57.436Z,7.90
2018-12-23T11:07:33.654Z,8.00
2018-12-23T11:10:09.802Z,8.00
2018-12-23T11:12:45.812Z,8.00
2018-12-23T11:15:18.138Z,8.00
2018-12-23T11:17:53.981Z,8.00
2018-12-23T11:20:26.280Z,8.00
2018-12-23T11:23:02.285Z,8.10
2018-12-23T11:25:34.498Z,8.10
2018-12-23T11:28:10.576Z,8.10
2018-12-23T11:30:42.933Z,8.10
2018-12-23T11:33:19.076Z,8.10
2018-12-23T11:35:54.983Z,8.20
2018-12-23T11:38:35.528Z,8.20
2018-12-23T11:41:36.144Z,8.20
2018-12-23T11:44:12.368Z,8.20
2018-12-23T11:46:48.386Z,8.10
2018-12-23T11:49:24.431Z,8.10
2018-12-23T11:52:00.564Z,8.10
2018-12-23T11:54:36.583Z,8.10
2018-12-23T11:57:12.514Z,8.10
2018-12-23T11:59:48.548Z,8.10
2018-12-23T12:02:24.540Z,8.10
2018-12-23T12:05:00.777Z,8.10
2018-12-23T12:07:36.768Z,8.20
2018-12-23T12:10:12.861Z,8.20
2018-12-23T12:12:48.756Z,8.20
2018-12-23T12:15:21.257Z,8.20
2018-12-23T12:17:57.193Z,8.20
2018-12-23T12:21:13.889Z,8.20
2018-12-23T12:23:43.882Z,8.20
2018-12-23T12:26:13.978Z,8.20
2018-12-23T12:28:45.099Z,8.20
2018-12-23T12:31:15.130Z,8.30
2018-12-23T12:33:45.198Z,8.30
2018-12-23T12:36:15.251Z,8.30
2018-12-23T12:38:52.168Z,8.30
2018-12-23T12:41:17.048Z,8.30
2018-12-23T12:43:47.638Z,8.30
2018-12-23T12:46:17.670Z,8.30
2018-12-23T12:48:47.690Z,8.30
2018-12-23T12:51:17.795Z,8.30
2018-12-23T12:53:48.511Z,8.40
2018-12-23T12:56:20.530Z,8.40
2018-12-23T12:58:52.069Z,8.40
2018-12-23T13:01:22.091Z,8.40
2018-12-23T13:03:52.098Z,8.40
2018-12-23T13:06:22.248Z,8.40
2018-12-23T13:09:00.284Z,8.40
2018-12-23T13:11:24.003Z,8.40
2018-12-23T13:13:54.114Z,8.40
2018-12-23T13:16:24.185Z,8.40
2018-12-23T13:18:54.267Z,8.40
2018-12-23T13:21:24.411Z,8.30
2018-12-23T13:23:54.476Z,8.30
2018-12-23T13:26:24.567Z,8.30
2018-12-23T13:28:54.689Z,8.30
2018-12-23T13:31:24.689Z,8.40
2018-12-23T13:33:54.763Z,8.30
2018-12-23T13:36:24.831Z,8.30
2018-12-23T13:38:54.922Z,8.30
2018-12-23T13:42:18.320Z,8.30
2018-12-23T13:45:12.876Z,8.30
2018-12-23T13:48:41.818Z,8.30
2018-12-23T13:51:29.709Z,8.30
2018-12-23T13:54:31.997Z,8.30
2018-12-23T13:57:51.015Z,8.20
2018-12-23T14:01:01.183Z,8.20
2018-12-23T14:04:14.624Z,8.30
2018-12-23T14:07:21.630Z,8.20
2018-12-23T14:10:34.533Z,8.20
2018-12-23T14:13:04.627Z,8.10
2018-12-23T14:15:34.689Z,8.10
2018-12-23T14:18:04.710Z,8.00
2018-12-23T14:20:35.352Z,8.00
2018-12-23T14:23:05.752Z,8.00
2018-12-23T14:25:35.835Z,8.00
2018-12-23T14:28:05.887Z,8.00
2018-12-23T14:30:36.898Z,8.00
2018-12-23T14:33:06.959Z,8.00
2018-12-23T14:39:10.462Z,7.80
2018-12-23T14:41:40.550Z,7.80
2018-12-23T14:44:10.647Z,7.90
2018-12-23T14:46:40.694Z,7.80
2018-12-23T14:49:10.775Z,7.80
2018-12-23T14:51:40.966Z,7.80
2018-12-23T14:54:11.055Z,7.80
2018-12-23T14:56:41.156Z,7.80
2018-12-23T14:59:11.164Z,7.80
2018-12-23T15:01:44.235Z,7.80
2018-12-23T15:04:14.360Z,7.80
2018-12-23T15:06:44.435Z,7.80
2018-12-23T15:09:14.543Z,7.80
2018-12-23T15:11:44.643Z,7.80
2018-12-23T15:14:14.781Z,7.80
2018-12-23T15:16:44.835Z,7.80
2018-12-23T15:19:15.008Z,7.80
2018-12-23T15:21:45.063Z,7.80
2018-12-23T15:24:15.256Z,9.30
2018-12-23T15:26:45.358Z,9.40
2018-12-23T15:29:15.372Z,9.10
2018-12-23T15:31:45.468Z,8.80
2018-12-23T15:34:15.667Z,8.60
2018-12-23T15:36:45.766Z,8.40
2018-12-23T15:39:15.826Z,8.30
2018-12-23T15:41:45.966Z,8.20
2018-12-23T15:44:16.081Z,8.10
2018-12-23T15:46:46.250Z,8.10
2018-12-23T15:52:48.599Z,8.00
2018-12-23T15:55:18.937Z,8.00
2018-12-23T15:57:49.000Z,8.00
2018-12-23T16:00:19.051Z,7.90
2018-12-23T16:02:49.321Z,7.90
2018-12-23T16:05:19.338Z,7.90
2018-12-23T16:07:49.514Z,7.90
2018-12-23T16:10:19.709Z,7.90
2018-12-23T16:16:31.216Z,7.80
2018-12-23T16:19:01.513Z,7.80
2018-12-23T16:21:31.684Z,7.80
2018-12-23T16:24:04.293Z,7.80
2018-12-23T16:26:33.876Z,7.70
2018-12-23T16:29:03.927Z,7.60
2018-12-23T16:31:34.036Z,7.60
2018-12-23T16:34:04.230Z,7.60
2018-12-23T16:36:34.351Z,7.60
2018-12-23T16:39:06.131Z,7.60
2018-12-23T16:41:36.285Z,7.70
2018-12-23T16:44:06.557Z,7.60
2018-12-23T16:50:09.743Z,7.60
2018-12-23T16:52:39.899Z,7.70
2018-12-23T16:55:09.997Z,7.70
2018-12-23T16:57:40.121Z,7.60
2018-12-23T17:00:12.787Z,7.60
2018-12-23T17:02:44.286Z,7.70
2018-12-23T17:08:48.801Z,7.60
2018-12-23T17:14:51.307Z,7.60
2018-12-23T17:17:21.495Z,7.60
2018-12-23T17:19:51.665Z,7.60
2018-12-23T17:22:21.776Z,7.60
2018-12-23T17:24:51.985Z,7.60
2018-12-23T17:27:22.071Z,7.60
2018-12-23T17:29:52.140Z,7.60
2018-12-23T17:32:23.762Z,7.60
2018-12-23T17:34:53.989Z,7.60
2018-12-23T17:40:56.539Z,7.60
2018-12-23T17:43:26.803Z,7.60
2018-12-23T17:45:56.960Z,7.60
2018-12-23T17:48:27.039Z,7.60
2018-12-23T17:50:57.111Z,7.60
2018-12-23T17:53:27.179Z,7.50
2018-12-23T17:55:57.211Z,7.50
2018-12-23T18:01:59.559Z,7.60
2018-12-23T18:08:01.990Z,7.50
2018-12-23T18:14:04.301Z,7.40
2018-12-23T18:16:34.430Z,7.40
2018-12-23T18:19:04.453Z,7.50
2018-12-23T18:21:34.511Z,7.50
2018-12-23T18:27:37.024Z,7.50
2018-12-23T18:30:35.365Z,7.40
2018-12-23T18:36:24.640Z,7.40
2018-12-23T18:39:51.977Z,7.40
2018-12-23T18:42:22.437Z,7.40
2018-12-23T18:44:52.564Z,7.40
2018-12-23T18:47:22.666Z,7.40
2018-12-23T18:49:52.688Z,7.40
2018-12-23T18:52:22.745Z,7.40
2018-12-23T18:58:25.045Z,7.40
2018-12-23T19:01:25.118Z,7.40
2018-12-23T19:03:55.276Z,7.40
2018-12-23T19:06:54.941Z,7.30
2018-12-23T19:09:33.858Z,7.30
2018-12-23T19:12:40.495Z,7.30
2018-12-23T19:15:48.702Z,7.30
2018-12-23T19:18:46.065Z,7.30
2018-12-23T19:21:52.614Z,7.30
2018-12-23T19:25:07.727Z,7.40
2018-12-23T19:28:15.302Z,7.40
2018-12-23T19:31:24.718Z,7.30
2018-12-23T19:34:51.886Z,7.30
2018-12-23T19:41:47.399Z,7.30
2018-12-23T19:48:15.882Z,7.30
2018-12-23T19:51:26.783Z,7.30
2018-12-23T19:58:26.696Z,7.30
2018-12-23T20:01:31.219Z,7.30
2018-12-23T20:07:59.571Z,7.20
2018-12-23T20:14:41.517Z,7.20
2018-12-23T20:17:47.664Z,7.20
2018-12-23T20:24:21.498Z,7.20
2018-12-23T20:27:39.827Z,7.20
2018-12-23T20:30:45.493Z,7.20
2018-12-23T20:33:54.163Z,7.20
2018-12-23T20:40:31.324Z,7.10
2018-12-23T20:43:51.441Z,7.10
2018-12-23T20:50:19.735Z,7.10
2018-12-23T20:57:02.525Z,7.10
2018-12-23T21:00:35.863Z,7.10
2018-12-23T21:03:27.481Z,7.00
2018-12-23T21:06:49.736Z,7.00
2018-12-23T21:10:02.993Z,7.00
2018-12-23T21:16:43.147Z,7.00
2018-12-23T21:27:15.979Z,7.00
2018-12-23T21:30:17.693Z,6.90
2018-12-23T21:33:27.424Z,6.90
2018-12-23T21:40:19.740Z,6.90
2018-12-23T21:43:25.683Z,6.90
2018-12-23T21:46:30.730Z,6.80
2018-12-23T21:49:34.923Z,6.80
2018-12-23T21:52:45.859Z,6.80
2018-12-23T21:59:33.803Z,6.80
2018-12-23T22:02:41.101Z,6.80
2018-12-23T22:09:28.254Z,6.80
2018-12-23T22:12:41.284Z,6.80
2018-12-23T22:15:11.459Z,6.70
2018-12-23T22:17:41.575Z,6.70
2018-12-23T22:23:44.024Z,6.70
2018-12-23T22:26:14.106Z,6.70
2018-12-23T22:28:44.227Z,6.80
2018-12-23T22:31:14.299Z,6.80
2018-12-23T22:33:44.378Z,6.70
2018-12-23T22:36:14.449Z,6.70
2018-12-23T22:38:44.571Z,6.70
2018-12-23T22:41:17.838Z,6.70
2018-12-23T22:43:47.898Z,6.70
2018-12-23T22:46:21.383Z,6.70
2018-12-23T22:48:51.415Z,6.70
2018-12-23T22:51:21.532Z,6.70
2018-12-23T22:53:51.614Z,6.70
2018-12-23T22:56:21.615Z,6.70
2018-12-23T22:58:51.642Z,6.60
2018-12-23T23:01:21.727Z,6.60
2018-12-23T23:03:51.783Z,6.70
2018-12-23T23:06:21.835Z,6.60
2018-12-23T23:08:51.944Z,6.70
2018-12-23T23:11:21.963Z,6.70
2018-12-23T23:13:51.996Z,6.70
2018-12-23T23:16:22.032Z,6.70
2018-12-23T23:18:52.098Z,6.80
2018-12-23T23:21:22.166Z,6.70
2018-12-23T23:23:52.226Z,6.70
2018-12-23T23:26:23.346Z,6.70
2018-12-23T23:28:53.484Z,6.80
2018-12-23T23:31:23.615Z,6.80
2018-12-23T23:33:53.684Z,6.70
2018-12-23T23:36:23.761Z,6.80
2018-12-23T23:38:53.940Z,6.80
2018-12-23T23:41:24.088Z,6.70
2018-12-23T23:43:54.188Z,6.70
2018-12-23T23:46:24.275Z,6.70
2018-12-23T23:48:54.294Z,6.70
2018-12-23T23:51:24.326Z,6.70
2018-12-23T23:53:54.483Z,6.70
2018-12-23T23:56:24.607Z,6.70
2018-12-23T23:58:54.796Z,6.70
